createdAt,value
2019-02-24T00:01:17.813Z,42.53
2019-02-24T00:03:19.780Z,35.00
2019-02-24T00:05:21.424Z,32.93
2019-02-24T00:07:23.080Z,32.20
2019-02-24T00:09:24.733Z,33.67
2019-02-24T00:11:26.389Z,36.00
2019-02-24T00:13:28.041Z,34.63
2019-02-24T00:15:29.676Z,41.70
2019-02-24T00:17:31.328Z,35.90
2019-02-24T00:19:32.973Z,42.30
2019-02-24T00:21:34.980Z,39.50
2019-02-24T00:23:36.888Z,41.40
2019-02-24T00:25:38.828Z,41.70
2019-02-24T00:27:40.513Z,37.07
2019-02-24T00:29:42.180Z,45.07
2019-02-24T00:31:43.844Z,41.07
2019-02-24T00:33:45.493Z,36.80
2019-02-24T00:35:47.152Z,37.90
2019-02-24T00:37:49.106Z,43.00
2019-02-24T00:39:50.753Z,37.23
2019-02-24T00:41:52.724Z,36.10
2019-02-24T00:43:54.376Z,35.83
2019-02-24T00:45:56.327Z,34.00
2019-02-24T00:47:57.989Z,35.03
2019-02-24T00:49:59.641Z,33.77
2019-02-24T00:52:01.304Z,35.07
2019-02-24T00:54:02.953Z,36.70
2019-02-24T00:56:04.606Z,31.37
2019-02-24T00:58:06.289Z,31.63
2019-02-24T01:00:08.633Z,38.00
2019-02-24T01:02:10.315Z,31.30
2019-02-24T01:04:11.974Z,31.97
2019-02-24T01:06:13.675Z,30.53
2019-02-24T01:08:15.327Z,36.30
2019-02-24T01:10:16.997Z,32.30
2019-02-24T01:12:18.648Z,31.67
2019-02-24T01:14:20.305Z,30.80
2019-02-24T01:16:21.950Z,28.93
2019-02-24T01:18:23.612Z,31.00
2019-02-24T01:20:25.301Z,30.83
2019-02-24T01:22:26.985Z,33.23
2019-02-24T01:24:28.624Z,31.90
2019-02-24T01:26:30.293Z,31.17
2019-02-24T01:28:31.954Z,34.77
2019-02-24T01:30:33.624Z,35.27
2019-02-24T01:32:35.337Z,32.30
2019-02-24T01:34:36.980Z,33.10
2019-02-24T01:36:38.937Z,29.80
2019-02-24T01:38:40.592Z,35.90
2019-02-24T01:40:42.250Z,32.77
2019-02-24T01:42:43.908Z,39.83
2019-02-24T01:44:45.553Z,36.40
2019-02-24T01:46:47.520Z,33.93
2019-02-24T01:48:49.192Z,34.90
2019-02-24T01:50:50.844Z,38.47
2019-02-24T01:52:52.565Z,38.80
2019-02-24T01:54:54.220Z,33.40
2019-02-24T01:56:55.868Z,37.17
2019-02-24T01:58:57.867Z,35.83
2019-02-24T02:00:59.536Z,34.23
2019-02-24T02:03:01.200Z,37.40
2019-02-24T02:05:03.141Z,34.63
2019-02-24T02:07:04.812Z,34.80
2019-02-24T02:09:06.769Z,37.03
2019-02-24T02:11:08.693Z,33.13
2019-02-24T02:13:10.357Z,32.73
2019-02-24T02:15:12.913Z,37.60
2019-02-24T02:17:15.086Z,30.77
2019-02-24T02:19:16.768Z,31.63
2019-02-24T02:21:18.688Z,28.73
2019-02-24T02:23:20.353Z,28.30
2019-02-24T02:25:22.316Z,32.20
2019-02-24T02:27:24.276Z,28.37
2019-02-24T02:29:25.930Z,35.83
2019-02-24T02:31:27.599Z,30.20
2019-02-24T02:33:29.548Z,37.23
2019-02-24T02:35:31.202Z,39.77
2019-02-24T02:37:32.848Z,44.43
2019-02-24T02:39:34.645Z,33.50
2019-02-24T02:41:38.718Z,34.30
2019-02-24T02:43:40.148Z,38.50
2019-02-24T02:45:41.822Z,35.83
2019-02-24T02:47:43.486Z,35.03
2019-02-24T02:49:45.165Z,40.80
2019-02-24T02:51:46.901Z,29.80
2019-02-24T02:53:49.109Z,36.17
2019-02-24T02:55:51.081Z,30.33
2019-02-24T02:57:52.742Z,36.53
2019-02-24T02:59:54.438Z,32.33
2019-02-24T03:01:56.094Z,32.17
2019-02-24T03:03:58.089Z,31.50
2019-02-24T03:06:13.765Z,36.80
2019-02-24T03:08:15.728Z,30.20
2019-02-24T03:10:17.681Z,32.50
2019-02-24T03:12:19.330Z,32.03
2019-02-24T03:14:20.976Z,30.30
2019-02-24T03:16:25.700Z,30.13
2019-02-24T03:18:27.344Z,29.63
2019-02-24T03:20:28.992Z,31.20
2019-02-24T03:22:30.653Z,35.05
2019-02-24T03:24:32.300Z,31.55
2019-02-24T03:26:34.221Z,35.17
2019-02-24T03:28:35.912Z,35.95
2019-02-24T03:30:37.805Z,38.57
2019-02-24T03:32:39.605Z,35.43
2019-02-24T03:34:41.341Z,34.70
2019-02-24T03:36:42.975Z,38.03
2019-02-24T03:38:44.652Z,34.95
2019-02-24T03:40:46.321Z,39.43
2019-02-24T03:42:47.981Z,36.60
2019-02-24T03:44:49.621Z,39.07
2019-02-24T03:46:51.574Z,33.27
2019-02-24T03:48:53.235Z,35.15
2019-02-24T03:50:54.898Z,34.20
2019-02-24T03:52:56.888Z,32.15
2019-02-24T03:54:58.817Z,35.97
2019-02-24T03:57:00.472Z,34.97
2019-02-24T03:59:02.443Z,35.13
2019-02-24T04:01:04.118Z,31.82
2019-02-24T04:03:05.773Z,32.93
2019-02-24T04:05:07.421Z,35.00
2019-02-24T04:07:09.085Z,38.90
2019-02-24T04:09:11.012Z,35.80
2019-02-24T04:11:12.701Z,36.65
2019-02-24T04:13:14.341Z,34.30
2019-02-24T04:15:16.000Z,33.78
2019-02-24T04:17:17.669Z,32.75
2019-02-24T04:19:19.345Z,36.05
2019-02-24T04:21:21.494Z,37.03
2019-02-24T04:23:23.169Z,34.98
2019-02-24T04:25:24.825Z,32.80
2019-02-24T04:27:26.516Z,31.23
2019-02-24T04:29:28.172Z,35.25
2019-02-24T04:31:29.844Z,38.42
2019-02-24T04:33:31.499Z,38.90
2019-02-24T04:35:33.161Z,36.70
2019-02-24T04:37:34.834Z,35.60
2019-02-24T04:39:36.493Z,37.70
2019-02-24T04:41:38.161Z,34.78
2019-02-24T04:43:39.831Z,33.25
2019-02-24T04:45:41.482Z,39.75
2019-02-24T04:47:43.166Z,38.95
2019-02-24T04:49:44.836Z,37.55
2019-02-24T04:51:46.527Z,34.45
2019-02-24T04:53:48.200Z,30.20
2019-02-24T04:55:50.530Z,31.70
2019-02-24T04:57:52.203Z,32.53
2019-02-24T04:59:53.857Z,30.88
2019-02-24T05:01:55.523Z,36.50
2019-02-24T05:03:57.196Z,36.15
2019-02-24T05:05:58.857Z,42.58
2019-02-24T05:08:00.869Z,36.85
2019-02-24T05:10:02.841Z,32.93
2019-02-24T05:12:04.504Z,35.50
2019-02-24T05:14:06.143Z,34.50
2019-02-24T05:16:07.796Z,35.68
2019-02-24T05:18:09.478Z,35.95
2019-02-24T05:20:11.156Z,39.80
2019-02-24T05:22:12.829Z,37.15
2019-02-24T05:24:14.480Z,40.55
2019-02-24T05:26:16.145Z,34.20
2019-02-24T05:28:17.816Z,34.43
2019-02-24T05:30:19.737Z,35.92
2019-02-24T05:32:21.445Z,35.08
2019-02-24T05:34:23.205Z,32.83
2019-02-24T05:36:24.858Z,35.17
2019-02-24T05:38:26.528Z,32.15
2019-02-24T05:40:28.185Z,40.35
2019-02-24T05:42:29.881Z,34.70
2019-02-24T05:44:31.557Z,33.38
2019-02-24T05:46:33.212Z,32.88
2019-02-24T05:48:35.228Z,36.88
2019-02-24T05:50:36.897Z,36.93
2019-02-24T05:52:38.548Z,38.67
2019-02-24T05:54:40.481Z,35.25
2019-02-24T05:56:42.137Z,36.85
2019-02-24T05:58:43.795Z,35.73
2019-02-24T06:00:45.472Z,37.93
2019-02-24T06:02:47.151Z,38.92
2019-02-24T06:04:49.101Z,50.55
2019-02-24T06:06:50.757Z,36.13
2019-02-24T06:08:52.428Z,32.20
2019-02-24T06:10:54.365Z,37.38
2019-02-24T06:12:56.023Z,35.80
2019-02-24T06:14:57.684Z,39.38
2019-02-24T06:16:59.343Z,37.67
2019-02-24T06:19:01.037Z,40.52
2019-02-24T06:21:02.785Z,33.73
2019-02-24T06:23:04.448Z,39.00
2019-02-24T06:25:06.381Z,35.20
2019-02-24T06:27:08.048Z,40.20
2019-02-24T06:29:09.704Z,33.45
2019-02-24T06:31:11.357Z,38.45
2019-02-24T06:33:13.025Z,35.48
2019-02-24T06:35:14.672Z,34.48
2019-02-24T06:37:16.357Z,40.88
2019-02-24T06:39:18.020Z,38.30
2019-02-24T06:41:19.688Z,35.20
2019-02-24T06:43:21.356Z,33.90
2019-02-24T06:45:23.021Z,37.80
2019-02-24T06:47:24.668Z,38.88
2019-02-24T06:49:26.560Z,40.10
2019-02-24T06:51:28.246Z,36.75
2019-02-24T06:53:29.896Z,33.38
2019-02-24T06:55:31.606Z,31.45
2019-02-24T06:57:33.292Z,39.50
2019-02-24T06:59:34.952Z,35.80
2019-02-24T07:01:36.986Z,39.83
2019-02-24T07:03:38.712Z,39.35
2019-02-24T07:05:40.377Z,40.75
2019-02-24T07:07:42.044Z,37.70
2019-02-24T07:09:43.709Z,39.10
2019-02-24T07:11:45.413Z,34.97
2019-02-24T07:13:47.121Z,35.90
2019-02-24T07:15:48.851Z,40.10
2019-02-24T07:17:50.917Z,38.60
2019-02-24T07:19:52.627Z,32.57
2019-02-24T07:21:54.753Z,41.37
2019-02-24T07:23:56.436Z,37.23
2019-02-24T07:25:58.093Z,31.20
2019-02-24T07:27:59.772Z,35.63
2019-02-24T07:30:01.453Z,42.00
2019-02-24T07:32:03.096Z,33.77
2019-02-24T07:34:04.777Z,34.33
2019-02-24T07:36:06.426Z,45.10
2019-02-24T07:38:08.401Z,35.80
2019-02-24T07:40:10.084Z,33.33
2019-02-24T07:42:11.769Z,30.53
2019-02-24T07:44:13.481Z,33.40
2019-02-24T07:46:15.133Z,32.27
2019-02-24T07:48:17.069Z,34.70
2019-02-24T07:50:18.833Z,32.03
2019-02-24T07:52:20.524Z,34.33
2019-02-24T07:54:25.303Z,37.00
2019-02-24T07:56:27.043Z,35.10
2019-02-24T07:58:29.372Z,35.53
2019-02-24T08:00:32.494Z,34.43
2019-02-24T08:02:34.473Z,32.57
2019-02-24T08:04:36.605Z,31.37
2019-02-24T08:06:38.268Z,29.90
2019-02-24T08:08:40.216Z,30.53
2019-02-24T08:10:42.177Z,34.23
2019-02-24T08:12:43.820Z,30.90
2019-02-24T08:14:45.478Z,30.33
2019-02-24T08:16:48.450Z,29.23
2019-02-24T08:18:51.990Z,26.30
2019-02-24T08:20:53.979Z,27.60
2019-02-24T08:22:55.992Z,28.40
2019-02-24T08:24:57.727Z,27.40
2019-02-24T08:26:59.368Z,26.97
2019-02-24T08:29:01.017Z,30.40
2019-02-24T08:31:02.664Z,27.80
2019-02-24T08:33:04.308Z,29.67
2019-02-24T08:35:05.988Z,27.30
2019-02-24T08:37:07.628Z,29.13
2019-02-24T08:39:09.285Z,23.90
2019-02-24T08:41:10.949Z,26.57
2019-02-24T08:43:12.595Z,22.23
2019-02-24T08:45:14.244Z,26.43
2019-02-24T08:47:15.893Z,30.73
2019-02-24T08:49:17.562Z,28.93
2019-02-24T08:51:19.549Z,27.07
2019-02-24T08:53:21.208Z,28.93
2019-02-24T08:55:22.876Z,30.37
2019-02-24T08:57:24.514Z,30.10
2019-02-24T08:59:26.179Z,27.87
2019-02-24T09:01:28.100Z,33.63
2019-02-24T09:03:29.746Z,28.80
2019-02-24T09:05:31.469Z,32.07
2019-02-24T09:07:33.121Z,32.30
2019-02-24T09:09:34.799Z,36.90
2019-02-24T09:11:36.683Z,38.77
2019-02-24T09:13:38.329Z,29.87
2019-02-24T09:15:39.984Z,32.47
2019-02-24T09:17:41.636Z,28.37
2019-02-24T09:19:43.309Z,28.80
2019-02-24T09:21:44.952Z,34.00
2019-02-24T09:23:46.626Z,29.67
2019-02-24T09:25:48.273Z,30.53
2019-02-24T09:27:49.930Z,27.57
2019-02-24T09:29:51.718Z,27.60
2019-02-24T09:31:53.385Z,26.93
2019-02-24T09:33:55.024Z,29.13
2019-02-24T09:35:56.720Z,30.03
2019-02-24T09:37:58.376Z,21.90
2019-02-24T09:40:00.436Z,28.47
2019-02-24T09:42:02.085Z,27.20
2019-02-24T09:44:03.741Z,23.90
2019-02-24T09:46:05.403Z,26.40
2019-02-24T09:48:07.217Z,23.40
2019-02-24T09:50:08.901Z,24.70
2019-02-24T09:52:10.549Z,25.87
2019-02-24T09:54:12.730Z,25.23
2019-02-24T09:56:14.445Z,23.33
2019-02-24T09:58:16.098Z,25.17
2019-02-24T10:00:17.744Z,27.90
2019-02-24T10:02:19.709Z,25.23
2019-02-24T10:04:21.357Z,25.97
2019-02-24T10:06:23.304Z,27.83
2019-02-24T10:08:25.068Z,26.97
2019-02-24T10:10:26.980Z,26.40
2019-02-24T10:12:28.628Z,24.77
2019-02-24T10:14:30.264Z,27.40
2019-02-24T10:16:31.921Z,29.33
2019-02-24T10:18:33.590Z,26.30
2019-02-24T10:20:35.237Z,27.43
2019-02-24T10:22:36.880Z,25.43
2019-02-24T10:24:38.520Z,23.43
2019-02-24T10:26:40.192Z,26.23
2019-02-24T10:28:41.844Z,25.87
2019-02-24T10:30:43.532Z,25.00
2019-02-24T10:32:45.180Z,23.70
2019-02-24T10:34:47.137Z,25.00
2019-02-24T10:36:48.812Z,23.07
2019-02-24T10:38:50.965Z,23.53
2019-02-24T10:40:52.613Z,22.07
2019-02-24T10:42:54.272Z,22.30
2019-02-24T10:44:55.913Z,20.23
2019-02-24T10:46:57.568Z,23.50
2019-02-24T10:49:03.327Z,22.40
2019-02-24T10:51:02.776Z,21.13
2019-02-24T10:53:04.877Z,20.23
2019-02-24T10:55:06.520Z,21.57
2019-02-24T10:57:12.704Z,18.80
2019-02-24T10:59:12.001Z,18.87
2019-02-24T11:01:13.650Z,17.60
2019-02-24T11:03:15.297Z,17.70
2019-02-24T11:05:16.964Z,17.90
2019-02-24T11:07:18.599Z,18.70
2019-02-24T11:09:20.245Z,27.10
2019-02-24T11:11:21.888Z,16.73
2019-02-24T11:13:23.567Z,17.00
2019-02-24T11:15:25.212Z,19.07
2019-02-24T11:17:26.872Z,16.50
2019-02-24T11:19:28.809Z,17.93
2019-02-24T11:21:30.472Z,16.77
2019-02-24T11:23:32.116Z,17.30
2019-02-24T11:25:33.788Z,18.73
2019-02-24T11:27:35.446Z,16.30
2019-02-24T11:29:37.100Z,16.53
2019-02-24T11:31:38.754Z,19.10
2019-02-24T11:33:40.392Z,17.30
2019-02-24T11:35:42.031Z,18.13
2019-02-24T11:37:43.681Z,22.73
2019-02-24T11:39:45.635Z,16.30
2019-02-24T11:41:47.303Z,21.93
2019-02-24T11:43:48.971Z,18.43
2019-02-24T11:45:50.630Z,14.37
2019-02-24T11:47:52.288Z,19.97
2019-02-24T11:49:53.929Z,18.10
2019-02-24T11:52:03.705Z,16.00
2019-02-24T11:53:59.134Z,19.80
2019-02-24T11:56:01.100Z,19.47
2019-02-24T11:58:03.068Z,14.83
2019-02-24T12:00:04.735Z,17.27
2019-02-24T12:02:06.383Z,17.17
2019-02-24T12:04:08.027Z,19.40
2019-02-24T12:06:09.680Z,15.70
2019-02-24T12:08:11.874Z,18.43
2019-02-24T12:10:13.515Z,18.33
2019-02-24T12:12:15.441Z,17.40
2019-02-24T12:14:17.100Z,18.67
2019-02-24T12:16:18.744Z,18.17
2019-02-24T12:18:20.396Z,19.00
2019-02-24T12:20:22.128Z,17.30
2019-02-24T12:22:23.776Z,17.67
2019-02-24T12:24:25.428Z,19.00
2019-02-24T12:26:27.069Z,18.67
2019-02-24T12:28:28.796Z,19.43
2019-02-24T12:30:30.433Z,19.13
2019-02-24T12:32:32.075Z,17.63
2019-02-24T12:34:33.724Z,14.23
2019-02-24T12:36:35.363Z,17.20
2019-02-24T12:38:37.041Z,18.57
2019-02-24T12:40:38.684Z,16.13
2019-02-24T12:42:40.333Z,13.70
2019-02-24T12:44:41.981Z,9.57
2019-02-24T12:46:43.876Z,13.03
2019-02-24T12:48:45.537Z,11.20
2019-02-24T12:50:47.491Z,12.50
2019-02-24T12:52:49.165Z,13.10
2019-02-24T12:54:51.204Z,10.87
2019-02-24T12:56:52.868Z,16.70
2019-02-24T12:58:54.765Z,13.00
2019-02-24T13:00:56.423Z,13.13
2019-02-24T13:02:58.065Z,13.80
2019-02-24T13:04:59.718Z,15.43
2019-02-24T13:07:01.369Z,12.80
2019-02-24T13:09:04.577Z,16.07
2019-02-24T13:11:06.240Z,13.60
2019-02-24T13:13:07.904Z,13.73
2019-02-24T13:15:09.581Z,15.93
2019-02-24T13:17:11.233Z,12.50
2019-02-24T13:19:13.388Z,13.90
2019-02-24T13:21:15.038Z,13.87
2019-02-24T13:23:16.696Z,17.40
2019-02-24T13:25:18.345Z,15.10
2019-02-24T13:27:20.000Z,15.83
2019-02-24T13:29:21.665Z,13.50
2019-02-24T13:31:23.301Z,17.00
2019-02-24T13:33:24.961Z,13.03
2019-02-24T13:35:26.616Z,14.20
2019-02-24T13:37:28.260Z,14.00
2019-02-24T13:39:29.936Z,13.10
2019-02-24T13:41:31.581Z,14.20
2019-02-24T13:43:33.264Z,13.17
2019-02-24T13:45:34.920Z,17.13
2019-02-24T13:47:36.565Z,14.73
2019-02-24T13:49:38.222Z,14.83
2019-02-24T13:51:39.860Z,13.93
2019-02-24T13:53:41.509Z,15.50
2019-02-24T13:55:43.192Z,15.37
2019-02-24T13:57:44.828Z,18.40
2019-02-24T13:59:46.476Z,15.90
2019-02-24T14:01:48.123Z,17.27
2019-02-24T14:03:50.018Z,15.20
2019-02-24T14:05:51.697Z,18.13
2019-02-24T14:07:53.323Z,18.53
2019-02-24T14:09:54.989Z,15.67
2019-02-24T14:11:56.636Z,15.90
2019-02-24T14:13:58.296Z,17.90
2019-02-24T14:15:59.945Z,16.90
2019-02-24T14:18:01.607Z,17.20
2019-02-24T14:20:03.848Z,18.43
2019-02-24T14:22:05.561Z,16.67
2019-02-24T14:24:07.201Z,19.53
2019-02-24T14:26:08.849Z,18.90
2019-02-24T14:28:10.528Z,16.93
2019-02-24T14:30:12.426Z,20.10
2019-02-24T14:32:14.331Z,15.43
2019-02-24T14:34:15.996Z,16.23
2019-02-24T14:36:17.880Z,15.40
2019-02-24T14:38:19.545Z,15.50
2019-02-24T14:40:21.545Z,13.33
2019-02-24T14:42:23.503Z,12.30
2019-02-24T14:44:25.129Z,14.90
2019-02-24T14:46:26.780Z,13.77
2019-02-24T14:48:28.429Z,13.20
2019-02-24T14:50:30.130Z,14.47
2019-02-24T14:52:31.849Z,14.43
2019-02-24T14:54:33.495Z,13.73
2019-02-24T14:56:35.175Z,15.50
2019-02-24T14:58:36.817Z,15.20
2019-02-24T15:00:38.473Z,16.30
2019-02-24T15:02:42.373Z,16.83
2019-02-24T15:04:43.674Z,14.73
2019-02-24T15:06:45.885Z,15.40
2019-02-24T15:08:47.769Z,13.53
2019-02-24T15:10:49.509Z,15.80
2019-02-24T15:12:51.176Z,13.80
2019-02-24T15:14:52.809Z,13.53
2019-02-24T15:16:54.460Z,14.47
2019-02-24T15:18:56.096Z,15.20
2019-02-24T15:20:57.776Z,13.87
2019-02-24T15:22:59.420Z,14.80
2019-02-24T15:25:01.302Z,15.57
2019-02-24T15:27:03.240Z,13.53
2019-02-24T15:29:04.981Z,14.50
2019-02-24T15:31:06.631Z,16.27
2019-02-24T15:33:08.302Z,13.63
2019-02-24T15:35:09.941Z,15.27
2019-02-24T15:37:11.592Z,14.80
2019-02-24T15:39:13.228Z,13.57
2019-02-24T15:41:15.188Z,13.40
2019-02-24T15:43:16.857Z,15.17
2019-02-24T15:45:18.500Z,14.27
2019-02-24T15:47:20.465Z,14.17
2019-02-24T15:49:22.140Z,12.33
2019-02-24T15:51:23.792Z,16.90
2019-02-24T15:53:25.424Z,15.63
2019-02-24T15:55:27.064Z,12.97
2019-02-24T15:57:28.727Z,13.90
2019-02-24T15:59:30.368Z,16.03
2019-02-24T16:01:32.016Z,20.20
2019-02-24T16:03:33.961Z,13.97
2019-02-24T16:05:35.612Z,15.60
2019-02-24T16:07:37.268Z,13.80
2019-02-24T16:09:38.937Z,14.97
2019-02-24T16:11:40.612Z,14.77
2019-02-24T16:13:42.272Z,16.43
2019-02-24T16:15:43.913Z,12.97
2019-02-24T16:17:45.578Z,14.20
2019-02-24T16:19:47.213Z,17.63
2019-02-24T16:21:49.653Z,14.73
2019-02-24T16:23:51.713Z,12.30
2019-02-24T16:25:53.365Z,13.00
2019-02-24T16:27:55.029Z,14.33
2019-02-24T16:29:56.956Z,15.53
2019-02-24T16:31:58.608Z,16.07
2019-02-24T16:34:00.261Z,14.27
2019-02-24T16:36:01.904Z,14.53
2019-02-24T16:38:03.756Z,12.50
2019-02-24T16:40:07.660Z,15.60
2019-02-24T16:42:09.319Z,22.10
2019-02-24T16:44:10.985Z,15.80
2019-02-24T16:46:12.632Z,13.90
2019-02-24T16:48:14.285Z,15.23
2019-02-24T16:50:15.997Z,13.40
2019-02-24T16:52:17.656Z,14.53
2019-02-24T16:54:19.569Z,15.90
2019-02-24T16:56:21.532Z,12.07
2019-02-24T16:58:23.190Z,20.60
2019-02-24T17:00:24.836Z,15.73
2019-02-24T17:02:26.502Z,12.83
2019-02-24T17:04:28.411Z,19.30
2019-02-24T17:06:30.065Z,14.30
2019-02-24T17:08:31.704Z,19.73
2019-02-24T17:10:33.620Z,13.77
2019-02-24T17:12:35.276Z,19.40
2019-02-24T17:14:36.922Z,15.93
2019-02-24T17:16:38.655Z,18.53
2019-02-24T17:18:40.585Z,16.53
2019-02-24T17:20:42.244Z,15.80
2019-02-24T17:22:43.905Z,14.50
2019-02-24T17:24:45.569Z,15.87
2019-02-24T17:26:47.219Z,12.20
2019-02-24T17:28:49.152Z,11.63
2019-02-24T17:30:50.790Z,12.70
2019-02-24T17:32:52.434Z,26.43
2019-02-24T17:34:54.080Z,19.90
2019-02-24T17:36:55.744Z,16.00
2019-02-24T17:38:57.726Z,14.63
2019-02-24T17:40:59.369Z,12.07
2019-02-24T17:43:01.044Z,12.60
2019-02-24T17:45:02.928Z,15.60
2019-02-24T17:47:04.577Z,13.13
2019-02-24T17:49:06.237Z,14.83
2019-02-24T17:51:08.385Z,16.00
2019-02-24T17:53:10.045Z,14.60
2019-02-24T17:55:11.713Z,17.03
2019-02-24T17:57:13.351Z,14.70
2019-02-24T17:59:15.045Z,17.23
2019-02-24T18:01:17.036Z,14.90
2019-02-24T18:03:18.709Z,16.57
2019-02-24T18:05:20.359Z,13.10
2019-02-24T18:07:22.000Z,14.40
2019-02-24T18:09:23.648Z,16.73
2019-02-24T18:11:25.320Z,16.60
2019-02-24T18:13:46.641Z,13.70
2019-02-24T18:15:48.861Z,15.40
2019-02-24T18:17:50.583Z,14.80
2019-02-24T18:19:52.217Z,19.70
2019-02-24T18:21:53.856Z,11.57
2019-02-24T18:23:55.757Z,18.60
2019-02-24T18:25:57.672Z,16.10
2019-02-24T18:27:59.331Z,16.60
2019-02-24T18:30:01.304Z,30.03
2019-02-24T18:32:02.952Z,15.60
2019-02-24T18:34:04.616Z,14.27
2019-02-24T18:36:06.512Z,13.27
2019-02-24T18:38:08.188Z,15.33
2019-02-24T18:40:10.353Z,14.37
2019-02-24T18:42:12.016Z,13.80
2019-02-24T18:44:13.665Z,15.67
2019-02-24T18:46:15.296Z,18.80
2019-02-24T18:48:16.961Z,11.70
2019-02-24T18:50:18.618Z,15.53
2019-02-24T18:52:20.273Z,15.23
2019-02-24T18:54:21.924Z,14.33
2019-02-24T18:56:23.585Z,11.23
2019-02-24T18:58:25.238Z,10.57
2019-02-24T19:00:26.888Z,12.00
2019-02-24T19:02:28.536Z,11.03
2019-02-24T19:04:30.196Z,11.90
2019-02-24T19:06:38.931Z,11.37
2019-02-24T19:08:35.720Z,13.37
2019-02-24T19:10:37.364Z,11.87
2019-02-24T19:12:39.016Z,13.37
2019-02-24T19:14:40.655Z,17.13
2019-02-24T19:16:42.295Z,15.40
2019-02-24T19:18:44.783Z,13.03
2019-02-24T19:20:46.520Z,16.50
2019-02-24T19:22:48.157Z,17.90
2019-02-24T19:24:49.816Z,20.27
2019-02-24T19:26:51.480Z,17.70
2019-02-24T19:28:53.137Z,21.83
2019-02-24T19:30:54.812Z,20.73
2019-02-24T19:32:56.759Z,28.50
2019-02-24T19:34:58.415Z,22.50
2019-02-24T19:37:00.177Z,27.40
2019-02-24T19:39:01.849Z,25.60
2019-02-24T19:41:03.499Z,24.43
2019-02-24T19:43:05.155Z,22.60
2019-02-24T19:45:07.452Z,24.00
2019-02-24T19:47:09.097Z,26.10
2019-02-24T19:49:11.125Z,27.03
2019-02-24T19:51:12.832Z,26.07
2019-02-24T19:53:14.503Z,20.13
2019-02-24T19:55:16.185Z,18.57
2019-02-24T19:57:17.852Z,26.67
2019-02-24T19:59:19.506Z,26.20
2019-02-24T20:01:21.706Z,24.80
2019-02-24T20:03:23.368Z,17.40
2019-02-24T20:05:25.045Z,17.93
2019-02-24T20:07:26.702Z,22.70
2019-02-24T20:09:28.369Z,20.03
2019-02-24T20:11:30.011Z,20.70
2019-02-24T20:13:31.885Z,30.83
2019-02-24T20:15:33.560Z,23.27
2019-02-24T20:17:35.472Z,27.10
2019-02-24T20:19:37.160Z,26.67
2019-02-24T20:21:39.196Z,26.47
2019-02-24T20:23:41.118Z,23.23
2019-02-24T20:25:42.784Z,24.17
2019-02-24T20:27:44.754Z,25.87
2019-02-24T20:29:46.444Z,24.40
2019-02-24T20:31:48.085Z,19.00
2019-02-24T20:33:51.428Z,21.87
2019-02-24T20:35:53.332Z,34.07
2019-02-24T20:37:54.985Z,26.27
2019-02-24T20:39:58.041Z,16.40
2019-02-24T20:42:00.172Z,16.63
2019-02-24T20:44:01.813Z,16.80
2019-02-24T20:46:03.488Z,19.13
2019-02-24T20:48:05.156Z,16.90
2019-02-24T20:50:08.093Z,24.03
2019-02-24T20:52:09.745Z,32.93
2019-02-24T20:54:11.717Z,27.90
2019-02-24T20:56:13.420Z,25.47
2019-02-24T20:58:15.381Z,37.17
2019-02-24T21:00:22.922Z,25.30
2019-02-24T21:02:24.583Z,30.53
2019-02-24T21:04:26.237Z,27.73
2019-02-24T21:06:27.927Z,22.17
2019-02-24T21:08:30.178Z,23.53
2019-02-24T21:10:31.956Z,25.07
2019-02-24T21:12:33.604Z,30.00
2019-02-24T21:14:35.556Z,34.43
2019-02-24T21:16:37.208Z,35.70
2019-02-24T21:18:39.251Z,35.90
2019-02-24T21:20:40.960Z,29.37
2019-02-24T21:22:42.617Z,31.00
2019-02-24T21:24:44.688Z,21.63
2019-02-24T21:26:46.405Z,27.37
2019-02-24T21:28:48.994Z,23.50
2019-02-24T21:30:50.829Z,19.20
2019-02-24T21:32:52.760Z,17.03
2019-02-24T21:34:54.407Z,29.23
2019-02-24T21:36:56.068Z,26.67
2019-02-24T21:38:57.736Z,25.73
2019-02-24T21:40:59.392Z,23.20
2019-02-24T21:43:01.049Z,25.87
2019-02-24T21:45:02.752Z,31.47
2019-02-24T21:47:04.421Z,28.87
2019-02-24T21:49:06.074Z,35.37
2019-02-24T21:51:07.748Z,33.60
2019-02-24T21:53:09.913Z,28.83
2019-02-24T21:55:11.595Z,30.10
2019-02-24T21:57:13.257Z,29.87
2019-02-24T21:59:14.910Z,29.50
2019-02-24T22:01:16.592Z,22.93
2019-02-24T22:03:18.240Z,13.83
2019-02-24T22:05:19.916Z,16.00
2019-02-24T22:07:21.885Z,16.73
2019-02-24T22:09:23.552Z,22.03
2019-02-24T22:11:25.210Z,23.73
2019-02-24T22:13:27.166Z,30.60
2019-02-24T22:15:28.894Z,23.47
2019-02-24T22:17:30.571Z,30.80
2019-02-24T22:19:32.215Z,27.37
2019-02-24T22:21:33.877Z,24.03
2019-02-24T22:23:35.758Z,21.80
2019-02-24T22:25:37.404Z,23.83
2019-02-24T22:27:39.088Z,33.07
2019-02-24T22:29:40.784Z,36.37
2019-02-24T22:31:42.463Z,31.80
2019-02-24T22:33:44.106Z,29.37
2019-02-24T22:35:45.754Z,28.37
2019-02-24T22:37:47.739Z,23.17
2019-02-24T22:39:49.389Z,22.33
2019-02-24T22:41:51.540Z,26.20
2019-02-24T22:43:53.194Z,24.70
2019-02-24T22:45:54.834Z,20.43
2019-02-24T22:47:56.494Z,22.47
2019-02-24T22:49:58.283Z,24.57
2019-02-24T22:51:59.961Z,23.77
2019-02-24T22:54:01.608Z,27.20
2019-02-24T22:56:03.261Z,25.80
2019-02-24T22:58:05.205Z,23.87
2019-02-24T23:00:28.177Z,28.10
2019-02-24T23:02:29.828Z,23.30
2019-02-24T23:04:31.740Z,21.10
2019-02-24T23:06:33.397Z,29.73
2019-02-24T23:08:35.060Z,22.47
2019-02-24T23:10:36.712Z,25.80
2019-02-24T23:12:38.396Z,27.33
2019-02-24T23:14:40.041Z,28.67
2019-02-24T23:16:41.683Z,23.83
2019-02-24T23:18:43.369Z,26.30
2019-02-24T23:20:45.012Z,23.73
2019-02-24T23:22:46.684Z,25.17
2019-02-24T23:24:48.334Z,25.73
2019-02-24T23:26:49.971Z,40.03
2019-02-24T23:28:51.645Z,23.83
2019-02-24T23:30:53.292Z,20.80
2019-02-24T23:32:55.209Z,24.13
2019-02-24T23:34:57.156Z,24.30
2019-02-24T23:36:59.836Z,25.53
2019-02-24T23:39:01.521Z,22.63
2019-02-24T23:41:03.185Z,21.57
2019-02-24T23:43:04.837Z,22.10
2019-02-24T23:45:10.174Z,20.57
2019-02-24T23:47:10.165Z,25.73
2019-02-24T23:49:12.096Z,19.87
2019-02-24T23:51:13.754Z,20.13
2019-02-24T23:53:15.408Z,22.87
2019-02-24T23:55:17.141Z,21.10
2019-02-24T23:57:18.840Z,19.37
2019-02-24T23:59:20.493Z,23.87
